TimeCDT,TemperatureF,Dew PointF,Humidity,Sea Level PressureIn,VisibilityMPH,Wind Direction,Wind SpeedMPH,Gust SpeedMPH,PrecipitationIn,Events,Conditions,WindDirDegrees,DateUTC
12:15 AM,59.9,47.8,64,30.06,10.0,SSW,9.2,-,N/A,,Clear,200,2013-03-30 05:15:00
12:35 AM,59.0,49.1,70,30.07,10.0,SSW,9.2,-,N/A,,Clear,210,2013-03-30 05:35:00
12:55 AM,57.2,49.1,74,30.06,10.0,SSW,6.9,-,N/A,,Clear,210,2013-03-30 05:55:00
1:35 AM,55.0,49.1,80,30.06,10.0,SSW,4.6,-,N/A,,Clear,210,2013-03-30 06:35:00
1:55 AM,54.5,49.5,83,30.06,10.0,SSW,9.2,-,N/A,,Clear,210,2013-03-30 06:55:00
2:15 AM,55.6,50.9,84,30.06,10.0,SW,6.9,-,N/A,,Clear,230,2013-03-30 07:15:00
2:35 AM,54.9,50.4,85,30.05,10.0,SW,6.9,-,N/A,,Clear,230,2013-03-30 07:35:00
2:55 AM,55.4,51.4,87,30.05,7.0,SSW,8.1,-,N/A,,Clear,210,2013-03-30 07:55:00
3:15 AM,54.5,50.9,88,30.05,7.0,SW,6.9,-,N/A,,Clear,230,2013-03-30 08:15:00
3:35 AM,53.6,50.9,91,30.05,7.0,SSW,3.5,-,N/A,,Clear,200,2013-03-30 08:35:00
3:55 AM,53.6,51.1,91,30.05,7.0,Calm,Calm,-,N/A,,Clear,0,2013-03-30 08:55:00
4:15 AM,51.4,49.3,92,30.05,7.0,NW,4.6,-,N/A,,Clear,310,2013-03-30 09:15:00
4:35 AM,51.6,50.0,94,30.05,7.0,West,4.6,-,N/A,,Clear,260,2013-03-30 09:35:00
4:55 AM,51.8,50.0,94,30.05,7.0,West,5.8,-,N/A,,Clear,280,2013-03-30 09:55:00
5:15 AM,51.8,50.2,94,30.05,7.0,West,8.1,-,N/A,,Clear,270,2013-03-30 10:15:00
5:35 AM,51.3,49.6,94,30.05,5.0,West,6.9,-,N/A,,Clear,280,2013-03-30 10:35:00
5:55 AM,49.1,47.3,93,30.05,5.0,NW,4.6,-,N/A,,Clear,310,2013-03-30 10:55:00
6:15 AM,47.3,46.0,95,30.04,4.0,WNW,4.6,-,N/A,,Clear,300,2013-03-30 11:15:00
6:35 AM,48.9,48.2,97,30.05,4.0,West,6.9,-,N/A,,Clear,280,2013-03-30 11:35:00
6:55 AM,50.4,49.5,97,30.05,4.0,West,8.1,-,N/A,,Clear,280,2013-03-30 11:55:00
7:15 AM,50.0,49.1,97,30.05,3.0,West,6.9,-,N/A,,Clear,280,2013-03-30 12:15:00
7:35 AM,50.0,49.1,97,30.05,3.0,West,5.8,-,N/A,,Clear,280,2013-03-30 12:35:00
7:55 AM,50.0,49.1,97,30.05,2.5,WNW,9.2,-,N/A,,Clear,290,2013-03-30 12:55:00
8:15 AM,50.9,50.0,97,30.05,2.5,WNW,9.2,-,N/A,,Clear,290,2013-03-30 13:15:00
8:35 AM,52.0,51.3,97,30.06,3.0,WNW,9.2,-,N/A,,Clear,290,2013-03-30 13:35:00
8:55 AM,53.6,52.5,96,30.06,4.0,WNW,9.2,-,N/A,,Clear,290,2013-03-30 13:55:00
9:15 AM,54.9,52.7,92,30.07,5.0,West,8.1,-,N/A,,Clear,280,2013-03-30 14:15:00
9:35 AM,56.5,53.1,88,30.07,7.0,WNW,8.1,-,N/A,,Clear,290,2013-03-30 14:35:00
9:55 AM,59.5,53.4,80,30.07,10.0,WNW,10.4,-,N/A,,Clear,290,2013-03-30 14:55:00
10:15 AM,63.9,50.9,63,30.07,10.0,WNW,6.9,-,N/A,,Clear,300,2013-03-30 15:15:00
10:35 AM,68.2,44.4,42,30.07,10.0,NNW,8.1,-,N/A,,Clear,330,2013-03-30 15:35:00
10:55 AM,70.7,36.3,28,30.07,10.0,North,10.4,-,N/A,,Clear,360,2013-03-30 15:55:00
11:15 AM,73.0,33.1,23,30.07,10.0,North,8.1,-,N/A,,Clear,10,2013-03-30 16:15:00
11:35 AM,74.8,31.5,20,30.06,10.0,North,6.9,-,N/A,,Clear,350,2013-03-30 16:35:00
11:55 AM,77.0,27.5,16,30.06,10.0,North,9.2,-,N/A,,Clear,360,2013-03-30 16:55:00
12:15 PM,78.3,28.2,16,30.06,10.0,NNE,5.8,-,N/A,,Clear,20,2013-03-30 17:15:00
12:35 PM,79.5,27.1,15,30.06,10.0,NNW,8.1,-,N/A,,Clear,340,2013-03-30 17:35:00
12:55 PM,80.4,25.7,13,30.05,10.0,NNW,10.4,-,N/A,,Clear,330,2013-03-30 17:55:00
1:15 PM,81.5,24.8,12,30.05,10.0,NNW,11.5,16.1,N/A,,Clear,330,2013-03-30 18:15:00
1:35 PM,81.7,24.1,12,30.04,10.0,North,8.1,-,N/A,,Clear,350,2013-03-30 18:35:00
1:55 PM,81.5,23.9,12,30.03,10.0,Calm,Calm,-,N/A,,Clear,0,2013-03-30 18:55:00
2:15 PM,82.4,23.5,11,30.02,10.0,West,6.9,18.4,N/A,,Clear,270,2013-03-30 19:15:00
2:35 PM,83.3,23.4,11,30.01,10.0,West,9.2,17.3,N/A,,Clear,280,2013-03-30 19:35:00
2:55 PM,82.4,23.4,11,30.00,10.0,West,6.9,-,N/A,,Clear,270,2013-03-30 19:55:00
3:15 PM,83.3,22.1,11,29.99,10.0,Calm,Calm,-,N/A,,Clear,0,2013-03-30 20:15:00
3:35 PM,84.7,22.5,10,29.99,10.0,NW,8.1,-,N/A,,Clear,320,2013-03-30 20:35:00
3:55 PM,84.2,22.5,10,29.98,10.0,WNW,13.8,19.6,N/A,,Clear,290,2013-03-30 20:55:00
4:15 PM,84.2,23.0,11,29.97,10.0,West,8.1,21.9,N/A,,Clear,270,2013-03-30 21:15:00
4:35 PM,83.5,23.0,11,29.97,10.0,WSW,9.2,-,N/A,,Clear,250,2013-03-30 21:35:00
4:55 PM,83.7,22.8,11,29.96,10.0,West,15.0,-,N/A,,Clear,270,2013-03-30 21:55:00
5:15 PM,83.5,22.6,11,29.95,10.0,WSW,12.7,16.1,N/A,,Clear,240,2013-03-30 22:15:00
5:35 PM,82.8,22.3,11,29.94,10.0,West,8.1,-,N/A,,Clear,280,2013-03-30 22:35:00
5:55 PM,82.4,21.9,11,29.94,10.0,WNW,9.2,-,N/A,,Clear,290,2013-03-30 22:55:00
6:15 PM,82.4,21.6,11,29.93,10.0,WNW,5.8,-,N/A,,Clear,290,2013-03-30 23:15:00
6:35 PM,81.9,21.0,11,29.93,10.0,West,9.2,-,N/A,,Clear,280,2013-03-30 23:35:00
6:55 PM,81.5,21.4,11,29.93,10.0,WNW,5.8,-,N/A,,Clear,290,2013-03-30 23:55:00
7:15 PM,80.6,21.4,11,29.93,10.0,West,5.8,-,N/A,,Clear,280,2013-03-31 00:15:00
7:35 PM,79.5,21.4,12,29.93,10.0,West,4.6,-,N/A,,Clear,280,2013-03-31 00:35:00
7:55 PM,78.1,21.6,12,29.93,10.0,WNW,6.9,-,N/A,,Clear,300,2013-03-31 00:55:00
8:15 PM,76.6,21.7,13,29.94,10.0,WNW,5.8,-,N/A,,Clear,290,2013-03-31 01:15:00
8:35 PM,75.4,21.4,13,29.94,10.0,West,5.8,-,N/A,,Clear,280,2013-03-31 01:35:00
8:55 PM,72.9,22.5,15,29.94,10.0,Calm,Calm,-,N/A,,Clear,0,2013-03-31 01:55:00
9:15 PM,72.7,22.5,15,29.94,10.0,WNW,5.8,-,N/A,,Clear,290,2013-03-31 02:15:00
9:35 PM,72.0,22.6,16,29.95,10.0,West,5.8,-,N/A,,Clear,280,2013-03-31 02:35:00
9:55 PM,68.9,24.4,19,29.96,10.0,Calm,Calm,-,N/A,,Clear,0,2013-03-31 02:55:00
10:35 PM,67.5,23.7,19,29.96,10.0,West,6.9,-,N/A,,Clear,260,2013-03-31 03:35:00
10:55 PM,68.2,22.6,18,29.96,10.0,Calm,Calm,-,N/A,,Clear,0,2013-03-31 03:55:00
11:15 PM,67.6,22.8,18,29.96,10.0,WSW,5.8,-,N/A,,Clear,250,2013-03-31 04:15:00
11:35 PM,68.2,21.9,17,29.96,10.0,WSW,8.1,-,N/A,,Clear,250,2013-03-31 04:35:00
11:55 PM,69.6,21.2,16,29.96,10.0,West,10.4,-,N/A,,Clear,260,2013-03-31 04:55:00